createdAt,value
2019-04-20T00:00:10.940Z,103396.31
2019-04-20T00:14:16.181Z,103382.67
2019-04-20T00:17:22.464Z,103390.84
2019-04-20T00:20:35.264Z,103395.16
2019-04-20T00:23:46.812Z,103392.02
2019-04-20T00:27:31.619Z,103384.16
2019-04-20T00:30:36.164Z,103391.66
2019-04-20T00:33:32.191Z,103397.02
2019-04-20T00:36:28.989Z,103390.13
2019-04-20T00:39:38.248Z,103380.42
2019-04-20T00:42:51.805Z,103391.11
2019-04-20T00:46:04.844Z,103383.91
2019-04-20T00:49:20.611Z,103376.91
2019-04-20T00:52:41.158Z,103377.03
2019-04-20T00:55:29.779Z,103379.66
2019-04-20T00:58:52.205Z,103376.47
2019-04-20T01:02:08.865Z,103372.55
2019-04-20T01:05:17.961Z,103375.91
2019-04-20T01:08:42.257Z,103372.84
2019-04-20T01:12:24.146Z,103372.02
2019-04-20T01:15:38.764Z,103373.92
2019-04-20T01:18:55.668Z,103370.39
2019-04-20T01:22:08.004Z,103373.75
2019-04-20T01:25:24.236Z,103373.66
2019-04-20T01:28:42.161Z,103377.22
2019-04-20T01:31:49.614Z,103374.39
2019-04-20T01:34:55.358Z,103375.63
2019-04-20T01:38:16.655Z,103374.88
2019-04-20T01:41:07.454Z,103374.45
2019-04-20T01:44:24.558Z,103370.63
2019-04-20T01:47:35.395Z,103368.56
2019-04-20T01:50:47.406Z,103370.02
2019-04-20T01:54:14.811Z,103370.88
2019-04-20T01:57:56.200Z,103370.39
2019-04-20T02:01:13.656Z,103374.95
2019-04-20T02:04:34.590Z,103378.02
2019-04-20T02:07:47.576Z,103380.09
2019-04-20T02:11:19.547Z,103379.12
2019-04-20T02:14:28.646Z,103381.31
2019-04-20T02:17:41.839Z,103379.13
2019-04-20T02:21:04.068Z,103384.73
2019-04-20T02:23:57.786Z,103385.36
2019-04-20T02:27:04.152Z,103386.58
2019-04-20T02:30:51.762Z,103388.92
2019-04-20T02:34:04.157Z,103387.09
2019-04-20T02:37:42.379Z,103393.82
2019-04-20T02:40:47.167Z,103397.88
2019-04-20T02:50:43.378Z,103399.42
2019-04-20T02:54:06.353Z,103398.07
2019-04-20T02:57:04.676Z,103392.16
2019-04-20T03:00:12.667Z,103393.17
2019-04-20T03:03:04.046Z,103393.02
2019-04-20T03:06:17.112Z,103400.00
2019-04-20T03:09:36.178Z,103402.20
2019-04-20T03:12:47.802Z,103400.07
2019-04-20T03:15:48.567Z,103402.91
2019-04-20T03:18:58.328Z,103405.80
2019-04-20T03:22:18.904Z,103402.39
2019-04-20T03:25:43.127Z,103402.61
2019-04-20T03:29:00.219Z,103404.75
2019-04-20T03:33:06.735Z,103396.13
2019-04-20T03:36:09.289Z,103403.63
2019-04-20T03:39:01.278Z,103405.19
2019-04-20T03:41:57.051Z,103401.26
2019-04-20T03:45:12.490Z,103405.73
2019-04-20T03:48:39.239Z,103401.22
2019-04-20T03:51:51.901Z,103397.92
2019-04-20T03:55:07.607Z,103398.08
2019-04-20T03:58:24.228Z,103398.12
2019-04-20T04:02:17.372Z,103404.31
2019-04-20T04:05:24.795Z,103403.03
2019-04-20T04:08:27.788Z,103406.74
2019-04-20T04:11:46.136Z,103403.67
2019-04-20T04:14:38.728Z,103399.67
2019-04-20T04:18:04.297Z,103398.11
2019-04-20T04:21:13.728Z,103397.94
2019-04-20T04:24:30.671Z,103403.77
2019-04-20T04:27:48.781Z,103404.64
2019-04-20T04:30:59.512Z,103403.08
2019-04-20T04:34:10.740Z,103406.52
2019-04-20T04:37:20.565Z,103401.86
2019-04-20T04:40:46.245Z,103401.97
2019-04-20T04:43:42.266Z,103409.00
2019-04-20T04:46:33.955Z,103408.17
2019-04-20T04:49:44.702Z,103411.51
2019-04-20T04:52:59.697Z,103412.87
2019-04-20T04:56:07.390Z,103411.22
2019-04-20T04:59:14.845Z,103417.94
2019-04-20T05:02:41.213Z,103416.13
2019-04-20T05:06:19.718Z,103419.28
2019-04-20T05:09:15.340Z,103411.58
2019-04-20T05:12:28.080Z,103416.75
2019-04-20T05:15:48.441Z,103417.72
2019-04-20T05:19:04.807Z,103418.95
2019-04-20T05:22:29.174Z,103416.00
2019-04-20T05:26:04.029Z,103427.66
2019-04-20T05:29:02.487Z,103418.44
2019-04-20T05:32:09.588Z,103426.58
2019-04-20T05:35:31.402Z,103417.86
2019-04-20T05:38:50.515Z,103424.64
2019-04-20T05:42:20.317Z,103420.49
2019-04-20T05:45:23.555Z,103417.36
2019-04-20T05:48:41.247Z,103412.24
2019-04-20T05:51:48.687Z,103414.04
2019-04-20T05:54:57.705Z,103410.27
2019-04-20T05:58:10.028Z,103416.52
2019-04-20T06:01:22.763Z,103417.03
2019-04-20T06:04:55.654Z,103420.63
2019-04-20T06:07:48.762Z,103409.58
2019-04-20T06:11:02.589Z,103415.30
2019-04-20T06:14:15.224Z,103412.23
2019-04-20T06:18:06.952Z,103416.09
2019-04-20T06:21:25.043Z,103420.98
2019-04-20T06:24:45.229Z,103424.02
2019-04-20T06:27:49.266Z,103425.77
2019-04-20T06:30:51.175Z,103416.80
2019-04-20T06:37:29.701Z,103424.77
2019-04-20T06:43:56.085Z,103424.94
2019-04-20T06:50:07.178Z,103424.62
2019-04-20T06:53:32.284Z,103430.50
2019-04-20T06:56:42.562Z,103420.78
2019-04-20T06:59:49.946Z,103420.53
2019-04-20T07:03:04.686Z,103422.93
2019-04-20T07:06:43.951Z,103414.72
2019-04-20T07:12:57.969Z,103422.69
2019-04-20T07:16:18.444Z,103417.60
2019-04-20T07:19:35.241Z,103421.88
2019-04-20T07:22:51.040Z,103415.47
2019-04-20T07:26:02.299Z,103423.44
2019-04-20T07:29:15.950Z,103425.45
2019-04-20T07:32:13.243Z,103424.56
2019-04-20T07:35:30.773Z,103423.17
2019-04-20T07:38:51.280Z,103427.41
2019-04-20T07:42:16.573Z,103414.33
2019-04-20T07:45:26.068Z,103426.06
2019-04-20T07:48:31.073Z,103424.77
2019-04-20T07:51:29.398Z,103425.98
2019-04-20T07:55:15.263Z,103419.27
2019-04-20T07:57:57.979Z,103422.22
2019-04-20T08:01:31.591Z,103419.32
2019-04-20T08:04:34.088Z,103419.23
2019-04-20T08:07:39.221Z,103414.88
2019-04-20T08:10:53.695Z,103418.58
2019-04-20T08:14:12.560Z,103417.71
2019-04-20T08:17:34.250Z,103417.11
2019-04-20T08:20:27.898Z,103417.34
2019-04-20T08:23:39.069Z,103414.48
2019-04-20T08:26:36.039Z,103415.55
2019-04-20T08:30:28.164Z,103417.25
2019-04-20T08:34:13.595Z,103418.95
2019-04-20T08:37:11.614Z,103411.48
2019-04-20T08:40:25.397Z,103413.92
2019-04-20T08:46:59.654Z,103413.94
2019-04-20T08:50:29.635Z,103406.22
2019-04-20T08:53:30.858Z,103406.89
2019-04-20T08:56:30.533Z,103406.50
2019-04-20T08:59:27.238Z,103399.18
2019-04-20T09:03:00.888Z,103395.18
2019-04-20T09:06:34.762Z,103389.22
2019-04-20T09:09:49.335Z,103396.44
2019-04-20T09:12:55.827Z,103397.66
2019-04-20T09:15:49.388Z,103398.77
2019-04-20T09:19:28.685Z,103394.12
2019-04-20T09:22:46.702Z,103389.02
2019-04-20T09:26:11.334Z,103392.67
2019-04-20T09:29:06.939Z,103388.94
2019-04-20T09:32:29.537Z,103380.95
2019-04-20T09:35:37.335Z,103380.21
2019-04-20T09:39:00.034Z,103378.43
2019-04-20T09:42:07.621Z,103375.16
2019-04-20T09:45:48.977Z,103376.61
2019-04-20T09:49:02.139Z,103369.53
2019-04-20T09:52:21.275Z,103364.28
2019-04-20T09:55:55.284Z,103363.21
2019-04-20T09:59:11.427Z,103359.52
2019-04-20T10:02:06.662Z,103361.13
2019-04-20T10:05:07.430Z,103354.06
2019-04-20T10:08:17.494Z,103357.31
2019-04-20T10:11:27.526Z,103349.91
2019-04-20T10:14:46.877Z,103350.73
2019-04-20T10:18:12.105Z,103349.33
2019-04-20T10:21:20.985Z,103355.91
2019-04-20T10:24:30.634Z,103359.04
2019-04-20T10:27:41.931Z,103355.41
2019-04-20T10:30:48.586Z,103350.48
2019-04-20T10:33:59.534Z,103347.82
2019-04-20T10:37:23.634Z,103338.52
2019-04-20T10:41:08.321Z,103338.30
2019-04-20T10:44:11.024Z,103342.95
2019-04-20T10:47:21.175Z,103335.42
2019-04-20T10:50:32.850Z,103329.80
2019-04-20T10:53:42.373Z,103332.33
2019-04-20T10:57:01.903Z,103330.03
2019-04-20T11:00:11.363Z,103327.36
2019-04-20T11:03:20.150Z,103333.44
2019-04-20T11:06:28.960Z,103326.17
2019-04-20T11:09:38.717Z,103316.83
2019-04-20T11:12:59.140Z,103310.45
2019-04-20T11:16:08.563Z,103303.88
2019-04-20T11:19:37.073Z,103305.27
2019-04-20T11:22:56.077Z,103307.21
2019-04-20T11:26:06.241Z,103298.41
2019-04-20T11:29:16.096Z,103303.09
2019-04-20T11:32:26.145Z,103304.41
2019-04-20T11:35:38.100Z,103292.75
2019-04-20T11:38:45.320Z,103304.62
2019-04-20T11:42:05.662Z,103294.70
2019-04-20T11:45:14.986Z,103295.62
2019-04-20T11:48:35.563Z,103287.08
2019-04-20T11:51:45.459Z,103290.77
2019-04-20T11:54:54.679Z,103280.98
2019-04-20T11:58:03.783Z,103273.50
2019-04-20T12:01:51.924Z,103273.86
2019-04-20T12:05:10.111Z,103261.82
2019-04-20T12:08:09.286Z,103264.41
2019-04-20T12:11:38.402Z,103255.27
2019-04-20T12:14:38.840Z,103255.67
2019-04-20T12:17:47.525Z,103250.40
2019-04-20T12:20:56.742Z,103246.58
2019-04-20T12:24:06.761Z,103248.56
2019-04-20T12:27:16.592Z,103244.02
2019-04-20T12:30:26.109Z,103238.52
2019-04-20T12:33:34.653Z,103238.22
2019-04-20T12:36:43.189Z,103237.39
2019-04-20T12:39:53.209Z,103228.90
2019-04-20T12:43:02.131Z,103225.93
2019-04-20T12:46:14.807Z,103226.20
2019-04-20T12:49:21.185Z,103218.03
2019-04-20T12:52:30.413Z,103226.19
2019-04-20T12:55:40.907Z,103213.47
2019-04-20T12:58:49.716Z,103212.41
2019-04-20T13:01:59.241Z,103210.67
2019-04-20T13:05:11.266Z,103209.09
2019-04-20T13:08:51.781Z,103205.02
2019-04-20T13:12:06.795Z,103201.56
2019-04-20T13:16:00.649Z,103197.59
2019-04-20T13:19:11.017Z,103195.41
2019-04-20T13:22:21.016Z,103186.98
2019-04-20T13:25:30.830Z,103186.85
2019-04-20T13:28:39.531Z,103177.95
2019-04-20T13:31:51.372Z,103179.56
2019-04-20T13:34:58.759Z,103176.58
2019-04-20T13:38:07.870Z,103172.83
2019-04-20T13:41:39.888Z,103170.25
2019-04-20T13:44:48.826Z,103167.30
2019-04-20T13:47:57.543Z,103164.38
2019-04-20T13:51:07.777Z,103162.82
2019-04-20T13:54:21.083Z,103158.17
2019-04-20T13:57:37.916Z,103151.86
2019-04-20T14:01:06.002Z,103143.33
2019-04-20T14:04:20.948Z,103140.89
2019-04-20T14:07:31.418Z,103133.87
2019-04-20T14:10:41.785Z,103136.83
2019-04-20T14:13:56.727Z,103137.23
2019-04-20T14:17:03.265Z,103137.77
2019-04-20T14:20:15.773Z,103134.80
2019-04-20T14:23:23.221Z,103130.05
2019-04-20T14:26:32.718Z,103128.67
2019-04-20T14:29:43.221Z,103129.62
2019-04-20T14:32:50.607Z,103124.54
2019-04-20T14:35:59.327Z,103117.60
2019-04-20T14:39:10.139Z,103117.97
2019-04-20T14:42:37.385Z,103124.52
2019-04-20T14:45:40.701Z,103115.37
2019-04-20T14:48:49.379Z,103113.19
2019-04-20T14:51:59.273Z,103112.79
2019-04-20T14:55:13.445Z,103114.04
2019-04-20T14:58:43.304Z,103106.67
2019-04-20T15:02:15.238Z,103104.83
2019-04-20T15:05:26.129Z,103100.83
2019-04-20T15:08:34.745Z,103095.14
2019-04-20T15:11:45.186Z,103093.33
2019-04-20T15:14:56.503Z,103099.43
2019-04-20T15:18:11.374Z,103086.40
2019-04-20T15:21:21.699Z,103091.95
2019-04-20T15:24:33.271Z,103092.19
2019-04-20T15:27:44.736Z,103095.55
2019-04-20T15:30:54.263Z,103085.66
2019-04-20T15:34:03.303Z,103082.22
2019-04-20T15:37:18.162Z,103077.58
2019-04-20T15:40:27.153Z,103074.02
2019-04-20T15:43:37.309Z,103070.11
2019-04-20T15:46:46.184Z,103077.84
2019-04-20T15:49:55.963Z,103069.42
2019-04-20T15:53:19.698Z,103060.63
2019-04-20T15:56:29.139Z,103069.95
2019-04-20T15:59:38.229Z,103067.22
2019-04-20T16:03:19.177Z,103073.31
2019-04-20T16:06:29.446Z,103066.70
2019-04-20T16:09:38.178Z,103065.08
2019-04-20T16:12:46.968Z,103065.79
2019-04-20T16:15:56.049Z,103071.27
2019-04-20T16:19:12.716Z,103059.78
2019-04-20T16:22:17.880Z,103056.91
2019-04-20T16:25:35.518Z,103052.28
2019-04-20T16:28:44.128Z,103051.56
2019-04-20T16:31:54.233Z,103048.58
2019-04-20T16:35:04.592Z,103039.75
2019-04-20T16:38:14.199Z,103045.42
2019-04-20T16:41:42.302Z,103034.85
2019-04-20T16:44:51.406Z,103041.02
2019-04-20T16:48:16.008Z,103030.39
2019-04-20T16:51:25.100Z,103033.46
2019-04-20T16:54:48.330Z,103022.59
2019-04-20T16:57:57.509Z,103022.27
2019-04-20T17:01:17.202Z,103013.58
2019-04-20T17:04:26.898Z,103014.06
2019-04-20T17:07:42.820Z,103012.91
2019-04-20T17:10:54.669Z,103013.80
2019-04-20T17:14:15.090Z,103013.80
2019-04-20T17:17:25.203Z,103011.34
2019-04-20T17:20:36.801Z,103007.70
2019-04-20T17:23:46.941Z,103011.62
2019-04-20T17:27:10.902Z,103008.44
2019-04-20T17:30:59.340Z,103011.91
2019-04-20T17:34:31.497Z,103007.25
2019-04-20T17:37:50.374Z,103010.59
2019-04-20T17:41:14.622Z,103010.16
2019-04-20T17:44:29.006Z,103015.18
2019-04-20T17:47:38.933Z,103009.02
2019-04-20T17:50:52.532Z,103010.14
2019-04-20T17:54:03.083Z,103017.88
2019-04-20T17:57:09.281Z,103012.25
2019-04-20T18:00:52.802Z,103010.79
2019-04-20T18:04:27.387Z,103011.55
2019-04-20T18:07:35.263Z,103009.42
2019-04-20T18:10:40.358Z,103010.97
2019-04-20T18:13:34.371Z,103014.59
2019-04-20T18:17:21.467Z,103011.19
2019-04-20T18:20:25.161Z,103014.14
2019-04-20T18:23:39.423Z,103008.90
2019-04-20T18:27:03.009Z,103016.92
2019-04-20T18:30:16.044Z,103016.30
2019-04-20T18:33:13.674Z,103014.62
2019-04-20T18:36:30.669Z,103024.20
2019-04-20T18:39:37.480Z,103020.28
2019-04-20T18:42:44.212Z,103014.14
2019-04-20T18:46:15.080Z,103018.24
2019-04-20T18:49:18.326Z,103013.14
2019-04-20T18:52:15.762Z,103012.80
2019-04-20T18:55:34.532Z,103015.19
2019-04-20T18:58:35.835Z,103017.55
2019-04-20T19:01:46.358Z,103019.28
2019-04-20T19:04:58.654Z,103022.98
2019-04-20T19:08:11.409Z,103024.16
2019-04-20T19:11:30.857Z,103028.25
2019-04-20T19:14:51.226Z,103025.48
2019-04-20T19:18:19.144Z,103039.40
2019-04-20T19:21:19.353Z,103043.14
2019-04-20T19:24:31.379Z,103029.66
2019-04-20T19:27:43.427Z,103035.58
2019-04-20T19:31:01.585Z,103037.77
2019-04-20T19:34:26.022Z,103033.19
2019-04-20T19:37:28.675Z,103032.78
2019-04-20T19:40:45.712Z,103037.02
2019-04-20T19:43:56.395Z,103030.84
2019-04-20T19:47:15.678Z,103030.34
2019-04-20T19:50:31.060Z,103032.48
2019-04-20T19:53:36.566Z,103022.70
2019-04-20T19:56:44.336Z,103023.36
2019-04-20T19:59:41.264Z,103020.48
2019-04-20T20:02:47.873Z,103018.39
2019-04-20T20:05:59.579Z,103016.28
2019-04-20T20:09:12.590Z,103012.36
2019-04-20T20:12:21.144Z,103008.94
2019-04-20T20:15:34.380Z,103014.33
2019-04-20T20:18:54.502Z,103013.02
2019-04-20T20:22:02.280Z,103005.41
2019-04-20T20:25:01.116Z,103003.91
2019-04-20T20:28:20.215Z,103006.36
2019-04-20T20:31:33.453Z,103000.92
2019-04-20T20:34:45.189Z,103006.16
2019-04-20T20:37:56.970Z,103007.88
2019-04-20T20:41:12.674Z,102999.33
2019-04-20T20:44:26.044Z,103008.12
2019-04-20T20:47:49.017Z,103005.48
2019-04-20T20:50:49.070Z,103001.80
2019-04-20T20:53:54.409Z,102996.88
2019-04-20T20:57:02.838Z,102995.66
2019-04-20T21:00:19.353Z,102999.22
2019-04-20T21:03:22.134Z,103005.15
2019-04-20T21:06:26.629Z,103007.09
2019-04-20T21:09:35.502Z,103008.06
2019-04-20T21:12:52.035Z,103004.13
2019-04-20T21:16:02.856Z,103000.38
2019-04-20T21:19:21.172Z,102988.08
2019-04-20T21:22:27.308Z,102987.47
2019-04-20T21:25:37.704Z,102986.55
2019-04-20T21:28:43.930Z,102978.56
2019-04-20T21:32:01.614Z,102982.42
2019-04-20T21:35:07.251Z,102990.51
2019-04-20T21:38:16.457Z,102981.45
2019-04-20T21:41:26.127Z,102979.28
2019-04-20T21:44:40.727Z,102972.29
2019-04-20T21:47:47.006Z,102975.32
2019-04-20T21:51:13.997Z,102971.08
2019-04-20T21:54:07.049Z,102973.14
2019-04-20T21:57:16.544Z,102974.53
2019-04-20T22:00:47.009Z,102976.45
2019-04-20T22:03:54.370Z,102965.13
2019-04-20T22:07:04.546Z,102971.47
2019-04-20T22:10:18.975Z,102975.71
2019-04-20T22:13:29.358Z,102971.14
2019-04-20T22:16:40.977Z,102969.27
2019-04-20T22:19:52.922Z,102969.72
2019-04-20T22:23:08.039Z,102967.74
2019-04-20T22:26:18.602Z,102966.03
2019-04-20T22:29:16.193Z,102962.83
2019-04-20T22:32:25.860Z,102960.66
2019-04-20T22:35:36.008Z,102965.67
2019-04-20T22:39:05.213Z,102960.54
2019-04-20T22:42:16.125Z,102964.88
2019-04-20T22:45:25.420Z,102961.77
2019-04-20T22:48:40.540Z,102950.09
2019-04-20T22:51:55.606Z,102953.58
2019-04-20T22:55:17.818Z,102955.64
2019-04-20T22:58:23.450Z,102959.62
2019-04-20T23:01:28.918Z,102950.78
2019-04-20T23:04:26.659Z,102946.18
2019-04-20T23:07:36.825Z,102947.94
2019-04-20T23:10:48.005Z,102948.94
2019-04-20T23:13:58.202Z,102943.52
2019-04-20T23:17:08.177Z,102932.78
2019-04-20T23:20:24.644Z,102936.62
2019-04-20T23:23:30.592Z,102934.55
2019-04-20T23:26:42.176Z,102930.27
2019-04-20T23:29:49.199Z,102927.38
2019-04-20T23:33:00.046Z,102923.09
2019-04-20T23:36:10.099Z,102918.95
2019-04-20T23:39:22.772Z,102920.52
2019-04-20T23:42:39.061Z,102918.16
2019-04-20T23:46:03.274Z,102915.30
2019-04-20T23:49:53.583Z,102912.59
2019-04-20T23:53:08.347Z,102914.61
2019-04-20T23:55:54.013Z,102900.81
2019-04-20T23:59:02.711Z,102907.97
